createdAt,value
2018-03-14T00:11:37.752Z,97947.64
2018-03-14T00:32:10.501Z,97964.97
2018-03-14T00:52:44.169Z,97973.41
2018-03-14T01:13:17.051Z,97954.34
2018-03-14T01:33:54.475Z,97955.66
2018-03-14T01:54:26.674Z,97936.64
2018-03-14T02:15:00.715Z,97946.30
2018-03-14T02:35:32.916Z,97934.77
2018-03-14T02:56:11.257Z,97936.50
2018-03-14T03:16:49.604Z,97929.63
2018-03-14T03:37:25.794Z,97937.20
2018-03-14T03:58:01.069Z,97947.03
2018-03-14T04:18:39.106Z,97946.54
2018-03-14T04:39:13.455Z,97926.95
2018-03-14T04:59:50.570Z,97937.59
2018-03-14T05:20:24.915Z,97958.39
2018-03-14T05:41:03.271Z,97952.70
2018-03-14T06:01:36.384Z,97958.66
2018-03-14T06:22:11.660Z,97974.18
2018-03-14T06:42:47.849Z,97983.13
2018-03-14T07:21:22.950Z,97980.67
2018-03-14T07:41:58.280Z,97981.48
2018-03-14T08:02:32.261Z,97987.56
2018-03-14T08:23:05.714Z,97990.08
2018-03-14T08:43:39.939Z,97974.43
2018-03-14T09:04:15.166Z,97978.14
2018-03-14T09:24:50.277Z,97966.95
2018-03-14T09:45:24.321Z,97956.27
2018-03-14T10:06:00.513Z,97943.58
2018-03-14T10:26:35.788Z,97928.63
2018-03-14T10:47:11.063Z,97911.00
2018-03-14T11:07:49.406Z,97905.58
2018-03-14T11:28:26.513Z,97877.84
2018-03-14T11:49:04.875Z,97834.57
2018-03-14T12:09:41.060Z,97797.94
2018-03-14T12:30:16.636Z,97758.07
2018-03-14T12:50:52.801Z,97707.70
2018-03-14T13:11:24.720Z,97668.05
2018-03-14T13:32:01.238Z,97629.49
2018-03-14T13:52:34.345Z,97599.88
2018-03-14T14:13:11.461Z,97569.69
2018-03-14T14:33:45.506Z,97553.13
2018-03-14T14:54:22.924Z,97516.73
2018-03-14T15:14:59.114Z,97497.77
2018-03-14T15:35:36.652Z,97477.89
2018-03-14T15:56:10.581Z,97457.08
2018-03-14T16:16:46.778Z,97453.91
2018-03-14T16:37:30.345Z,97461.06
2018-03-14T16:58:07.457Z,97451.42
2018-03-14T17:18:44.570Z,97427.50
2018-03-14T17:39:20.162Z,97422.03
2018-03-14T17:59:54.196Z,97408.90
2018-03-14T18:20:27.318Z,97385.47
2018-03-14T18:41:03.823Z,97370.33
2018-03-14T19:01:39.704Z,97351.45
2018-03-14T19:40:18.009Z,97334.59
2018-03-14T20:00:52.248Z,97316.63
2018-03-14T20:21:25.038Z,97309.55
2018-03-14T20:41:59.665Z,97278.14
2018-03-14T21:02:35.647Z,97253.16
2018-03-14T21:23:13.924Z,97221.23
2018-03-14T21:43:50.740Z,97197.67
2018-03-14T22:04:25.391Z,97182.69
2018-03-14T22:24:58.512Z,97189.48
2018-03-14T22:45:36.855Z,97161.84
2018-03-14T23:06:13.052Z,97139.99
2018-03-14T23:26:50.591Z,97113.80
2018-03-14T23:47:22.671Z,97077.16
